createdAt,value
2017-01-16T00:00:41.928Z,0.35
2017-01-16T00:01:53.318Z,0.38
2017-01-16T00:03:04.772Z,0.39
2017-01-16T00:04:16.171Z,0.39
2017-01-16T00:05:27.564Z,0.27
2017-01-16T00:06:38.966Z,0.2
2017-01-16T00:07:50.365Z,0.14
2017-01-16T00:09:01.805Z,0.14
2017-01-16T00:10:13.198Z,0.19
2017-01-16T00:11:24.591Z,0.14
2017-01-16T00:12:35.999Z,0.09
2017-01-16T00:13:47.403Z,0.1
2017-01-16T00:14:58.849Z,0.13
2017-01-16T00:16:10.241Z,0.16
2017-01-16T00:17:21.848Z,0.13
2017-01-16T00:18:33.238Z,0.14
2017-01-16T00:19:44.626Z,0.19
2017-01-16T00:20:56.105Z,0.03
2017-01-16T00:22:07.701Z,0.01
2017-01-16T00:23:19.098Z,-0.02
2017-01-16T00:24:30.719Z,-0.04
2017-01-16T00:25:42.116Z,0.06
2017-01-16T00:26:53.567Z,-0.05
2017-01-16T00:28:05.183Z,-0.09
2017-01-16T00:29:16.579Z,-0.05
2017-01-16T00:30:27.987Z,-0.01
2017-01-16T00:31:39.393Z,-0.01
2017-01-16T00:32:50.836Z,0.05
2017-01-16T00:34:02.229Z,0.08
2017-01-16T00:35:13.629Z,0.1
2017-01-16T00:36:25.223Z,0.16
2017-01-16T00:37:36.627Z,0.13
2017-01-16T00:38:48.074Z,0.09
2017-01-16T00:39:59.472Z,0.19
2017-01-16T00:41:10.873Z,0.19
2017-01-16T00:42:22.267Z,0.19
2017-01-16T00:43:33.673Z,0.2
2017-01-16T00:44:45.117Z,0.13
2017-01-16T00:45:56.511Z,0.13
2017-01-16T00:47:07.911Z,0.05
2017-01-16T00:48:19.515Z,0.08
2017-01-16T00:49:30.917Z,0.08
2017-01-16T00:50:42.373Z,0.16
2017-01-16T00:51:53.766Z,0.1
2017-01-16T00:53:05.362Z,0.08
2017-01-16T00:54:16.766Z,0.09
2017-01-16T00:55:28.358Z,0.13
2017-01-16T00:56:39.814Z,0.16
2017-01-16T00:57:51.215Z,0.19
2017-01-16T00:59:02.615Z,0.14
2017-01-16T01:00:14.017Z,0.2
2017-01-16T01:01:25.423Z,0.1
2017-01-16T01:02:36.873Z,0.14
2017-01-16T01:03:48.277Z,0.27
2017-01-16T01:04:59.676Z,0.16
2017-01-16T01:06:11.090Z,0.09
2017-01-16T01:07:22.498Z,0.02
2017-01-16T01:08:33.950Z,0.02
2017-01-16T01:09:45.347Z,0.14
2017-01-16T01:10:56.738Z,0.03
2017-01-16T01:12:08.141Z,0.01
2017-01-16T01:13:19.542Z,-0.04
2017-01-16T01:14:30.987Z,0.02
2017-01-16T01:15:42.386Z,0.03
2017-01-16T01:16:53.793Z,0.03
2017-01-16T01:18:05.185Z,-0.01
2017-01-16T01:19:16.578Z,-0.02
2017-01-16T01:20:28.030Z,-0.05
2017-01-16T01:21:39.435Z,-0.07
2017-01-16T01:22:50.837Z,-0.07
2017-01-16T01:24:02.240Z,-0.02
2017-01-16T01:25:13.647Z,-0.04
2017-01-16T01:26:25.324Z,-0.15
2017-01-16T01:27:36.722Z,-0.16
2017-01-16T01:28:48.524Z,-0.19
2017-01-16T01:29:59.935Z,-0.19
2017-01-16T01:31:11.337Z,-0.15
2017-01-16T01:32:22.785Z,-0.15
2017-01-16T01:33:34.184Z,-0.25
2017-01-16T01:34:45.583Z,-0.3
2017-01-16T01:35:57.204Z,-0.22
2017-01-16T01:37:09.018Z,-0.19
2017-01-16T01:38:20.473Z,-0.07
2017-01-16T01:39:32.075Z,-0.25
2017-01-16T01:40:43.503Z,-0.12
2017-01-16T01:41:54.895Z,-0.15
2017-01-16T01:43:06.297Z,-0.13
2017-01-16T01:44:17.751Z,-0.15
2017-01-16T01:45:29.154Z,-0.18
2017-01-16T01:46:40.558Z,-0.16
2017-01-16T01:47:51.957Z,-0.18
2017-01-16T01:49:03.358Z,-0.07
2017-01-16T01:50:14.808Z,-0.16
2017-01-16T01:51:26.412Z,-0.15
2017-01-16T01:52:37.818Z,-0.16
2017-01-16T01:53:49.216Z,-0.23
2017-01-16T01:55:00.649Z,-0.13
2017-01-16T01:56:12.098Z,-0.19
2017-01-16T01:57:23.492Z,-0.09
2017-01-16T01:58:34.889Z,-0.19
2017-01-16T01:59:46.292Z,-0.18
2017-01-16T02:00:57.698Z,-0.3
2017-01-16T02:02:09.139Z,-0.19
2017-01-16T02:03:20.539Z,-0.22
2017-01-16T02:04:32.139Z,-0.18
2017-01-16T02:05:43.535Z,-0.23
2017-01-16T02:06:55.134Z,-0.18
2017-01-16T02:08:06.787Z,-0.23
2017-01-16T02:09:18.185Z,-0.22
2017-01-16T02:10:29.787Z,-0.16
2017-01-16T02:11:41.177Z,-0.18
2017-01-16T02:12:52.573Z,-0.2
2017-01-16T02:14:04.029Z,-0.23
2017-01-16T02:15:15.435Z,-0.3
2017-01-16T02:16:27.034Z,-0.23
2017-01-16T02:17:38.464Z,-0.25
2017-01-16T02:18:49.864Z,-0.13
2017-01-16T02:20:01.360Z,-0.19
2017-01-16T02:21:12.752Z,-0.13
2017-01-16T02:22:24.174Z,-0.02
2017-01-16T02:23:35.569Z,-0.01
2017-01-16T02:24:47.172Z,-0.09
2017-01-16T02:25:58.631Z,-0.02
2017-01-16T02:27:10.034Z,0.06
2017-01-16T02:28:21.438Z,0.02
2017-01-16T02:29:32.841Z,0.03
2017-01-16T02:30:44.233Z,0.02
2017-01-16T02:31:55.677Z,0.05
2017-01-16T02:33:07.075Z,0.08
2017-01-16T02:34:18.476Z,0.13
2017-01-16T02:35:30.084Z,0.17
2017-01-16T02:36:41.686Z,0.14
2017-01-16T02:37:53.137Z,0.24
2017-01-16T02:39:04.539Z,0.19
2017-01-16T02:40:15.947Z,0.21
2017-01-16T02:41:27.348Z,0.17
2017-01-16T02:42:38.757Z,0.26
2017-01-16T02:43:50.211Z,0.19
2017-01-16T02:45:01.619Z,0.31
2017-01-16T02:46:13.016Z,0.21
2017-01-16T02:47:24.422Z,0.24
2017-01-16T02:48:35.825Z,0.24
2017-01-16T02:49:47.268Z,0.21
2017-01-16T02:50:58.662Z,0.24
2017-01-16T02:52:10.757Z,0.24
2017-01-16T02:53:22.654Z,0.23
2017-01-16T02:54:34.052Z,0.34
2017-01-16T02:55:45.498Z,0.39
2017-01-16T02:56:56.899Z,0.31
2017-01-16T02:58:08.296Z,0.39
2017-01-16T02:59:19.698Z,0.38
2017-01-16T03:00:31.091Z,0.38
2017-01-16T03:01:42.743Z,0.39
2017-01-16T03:02:54.344Z,0.39
2017-01-16T03:04:05.777Z,0.35
2017-01-16T03:05:17.168Z,0.39
2017-01-16T03:06:28.566Z,0.42
2017-01-16T03:07:40.217Z,0.38
2017-01-16T03:08:51.617Z,0.38
2017-01-16T03:10:03.013Z,0.35
2017-01-16T03:11:14.410Z,0.35
2017-01-16T03:12:26.010Z,0.37
2017-01-16T03:13:37.472Z,0.32
2017-01-16T03:14:48.869Z,0.26
2017-01-16T03:16:00.269Z,0.24
2017-01-16T03:17:11.879Z,0.24
2017-01-16T03:18:23.288Z,0.27
2017-01-16T03:19:34.738Z,0.24
2017-01-16T03:20:46.138Z,0.34
2017-01-16T03:21:57.537Z,0.21
2017-01-16T03:23:09.139Z,0.31
2017-01-16T03:24:20.739Z,0.34
2017-01-16T03:25:32.383Z,0.35
2017-01-16T03:26:43.778Z,0.32
2017-01-16T03:27:55.382Z,0.28
2017-01-16T03:29:06.790Z,0.34
2017-01-16T03:30:18.396Z,0.21
2017-01-16T03:31:29.874Z,0.32
2017-01-16T03:32:41.481Z,0.26
2017-01-16T03:33:53.083Z,0.16
2017-01-16T03:35:04.477Z,0.17
2017-01-16T03:36:15.883Z,0.19
2017-01-16T03:37:27.326Z,0.21
2017-01-16T03:38:38.723Z,0.2
2017-01-16T03:39:50.130Z,0.2
2017-01-16T03:41:01.536Z,0.13
2017-01-16T03:42:12.943Z,0.16
2017-01-16T03:43:24.396Z,0.14
2017-01-16T03:44:35.796Z,0.1
2017-01-16T03:45:47.402Z,0.16
2017-01-16T03:46:58.796Z,0.1
2017-01-16T03:48:10.194Z,0.1
2017-01-16T03:49:21.655Z,0.2
2017-01-16T03:50:33.256Z,0.23
2017-01-16T03:51:44.680Z,0.21
2017-01-16T03:52:56.072Z,0.23
2017-01-16T03:54:07.469Z,0.19
2017-01-16T03:55:18.926Z,0.17
2017-01-16T03:56:30.325Z,0.24
2017-01-16T03:57:41.725Z,0.24
2017-01-16T03:58:53.129Z,0.28
2017-01-16T04:00:04.564Z,0.24
2017-01-16T04:01:16.019Z,0.39
2017-01-16T04:02:27.622Z,0.38
2017-01-16T04:03:39.014Z,0.37
2017-01-16T04:04:50.624Z,0.37
2017-01-16T04:06:02.225Z,0.34
2017-01-16T04:07:13.675Z,0.38
2017-01-16T04:08:25.078Z,0.38
2017-01-16T04:09:36.478Z,0.34
2017-01-16T04:10:47.880Z,0.38
2017-01-16T04:11:59.286Z,0.41
2017-01-16T04:13:10.739Z,0.37
2017-01-16T04:14:22.141Z,0.48
2017-01-16T04:15:33.547Z,0.39
2017-01-16T04:16:44.955Z,0.48
2017-01-16T04:17:56.365Z,0.57
2017-01-16T04:19:07.812Z,0.58
2017-01-16T04:20:19.218Z,0.53
2017-01-16T04:21:30.618Z,0.56
2017-01-16T04:22:42.018Z,0.6
2017-01-16T04:23:53.613Z,0.64
2017-01-16T04:25:05.065Z,0.63
2017-01-16T04:26:16.459Z,0.64
2017-01-16T04:27:27.869Z,0.52
2017-01-16T04:28:39.271Z,0.52
2017-01-16T04:29:50.864Z,0.53
2017-01-16T04:31:02.309Z,0.61
2017-01-16T04:32:13.717Z,0.58
2017-01-16T04:33:25.118Z,0.6
2017-01-16T04:34:36.521Z,0.66
2017-01-16T04:35:47.920Z,0.57
2017-01-16T04:36:59.368Z,0.61
2017-01-16T04:38:10.776Z,0.56
2017-01-16T04:39:22.379Z,0.52
2017-01-16T04:40:33.780Z,0.53
2017-01-16T04:41:45.181Z,0.58
2017-01-16T04:42:56.658Z,0.6
2017-01-16T04:44:08.060Z,0.6
2017-01-16T04:45:19.479Z,0.6
2017-01-16T04:46:30.873Z,0.61
2017-01-16T04:47:42.274Z,0.6
2017-01-16T04:48:53.955Z,0.64
2017-01-16T04:50:05.357Z,0.61
2017-01-16T04:51:16.960Z,0.69
2017-01-16T04:52:28.560Z,0.67
2017-01-16T04:53:39.964Z,0.71
2017-01-16T04:54:51.613Z,0.71
2017-01-16T04:56:03.023Z,0.72
2017-01-16T04:57:14.420Z,0.71
2017-01-16T04:58:25.821Z,0.74
2017-01-16T04:59:37.420Z,0.74
2017-01-16T05:00:48.865Z,0.76
2017-01-16T05:02:00.464Z,0.75
2017-01-16T05:03:11.877Z,0.75
2017-01-16T05:04:23.281Z,0.78
2017-01-16T05:05:34.714Z,0.85
2017-01-16T05:06:46.165Z,0.78
2017-01-16T05:07:57.568Z,0.76
2017-01-16T05:09:08.969Z,0.79
2017-01-16T05:10:20.564Z,0.82
2017-01-16T05:11:32.165Z,0.76
2017-01-16T05:12:43.626Z,0.85
2017-01-16T05:13:55.030Z,0.76
2017-01-16T05:15:06.622Z,0.82
2017-01-16T05:16:18.029Z,0.78
2017-01-16T05:17:29.433Z,0.84
2017-01-16T05:18:41.107Z,0.82
2017-01-16T05:19:52.505Z,0.75
2017-01-16T05:21:03.909Z,0.84
2017-01-16T05:22:15.340Z,0.84
2017-01-16T05:23:26.749Z,0.89
2017-01-16T05:24:38.194Z,0.86
2017-01-16T05:25:49.589Z,0.92
2017-01-16T05:27:00.991Z,0.9
2017-01-16T05:28:12.390Z,0.78
2017-01-16T05:29:23.792Z,0.75
2017-01-16T05:30:35.236Z,0.74
2017-01-16T05:31:46.630Z,0.86
2017-01-16T05:32:58.035Z,0.75
2017-01-16T05:34:09.446Z,0.85
2017-01-16T05:35:20.850Z,0.96
2017-01-16T05:36:32.300Z,0.86
2017-01-16T05:37:43.703Z,0.93
2017-01-16T05:38:55.101Z,0.97
2017-01-16T05:40:06.505Z,0.93
2017-01-16T05:41:17.903Z,0.93
2017-01-16T05:42:29.356Z,0.94
2017-01-16T05:43:40.759Z,0.96
2017-01-16T05:44:52.161Z,0.96
2017-01-16T05:46:03.565Z,0.94
2017-01-16T05:47:14.971Z,0.96
2017-01-16T05:48:26.451Z,0.92
2017-01-16T05:49:37.853Z,0.96
2017-01-16T05:50:49.254Z,0.93
2017-01-16T05:52:00.647Z,0.96
2017-01-16T05:53:12.259Z,0.96
2017-01-16T05:54:23.707Z,0.94
2017-01-16T05:55:35.106Z,0.96
2017-01-16T05:56:46.511Z,0.93
2017-01-16T05:57:57.939Z,0.97
2017-01-16T05:59:09.345Z,0.89
2017-01-16T06:00:20.794Z,0.93
2017-01-16T06:01:32.199Z,0.92
2017-01-16T06:02:43.592Z,0.86
2017-01-16T06:03:54.991Z,0.96
2017-01-16T06:05:06.594Z,0.92
2017-01-16T06:06:18.247Z,0.99
2017-01-16T06:07:29.665Z,0.92
2017-01-16T06:08:41.066Z,0.93
2017-01-16T06:09:52.470Z,0.94
2017-01-16T06:11:03.869Z,0.94
2017-01-16T06:12:15.321Z,0.93
2017-01-16T06:13:26.731Z,0.93
2017-01-16T06:14:38.139Z,0.93
2017-01-16T06:15:49.547Z,0.75
2017-01-16T06:17:00.944Z,0.89
2017-01-16T06:18:12.416Z,0.9
2017-01-16T06:19:24.019Z,0.89
2017-01-16T06:20:35.419Z,0.9
2017-01-16T06:21:46.810Z,0.92
2017-01-16T06:22:58.214Z,0.97
2017-01-16T06:24:09.865Z,0.96
2017-01-16T06:25:21.261Z,0.92
2017-01-16T06:26:32.694Z,0.96
2017-01-16T06:27:44.307Z,0.97
2017-01-16T06:28:55.710Z,1.02
2017-01-16T06:30:07.168Z,0.97
2017-01-16T06:31:18.569Z,0.96
2017-01-16T06:32:29.975Z,1.04
2017-01-16T06:33:41.378Z,0.97
2017-01-16T06:34:52.780Z,0.97
2017-01-16T06:36:04.226Z,1.02
2017-01-16T06:37:15.625Z,1.03
2017-01-16T06:38:27.031Z,1.03
2017-01-16T06:39:38.433Z,0.96
2017-01-16T06:40:49.837Z,1.07
2017-01-16T06:42:01.317Z,1.02
2017-01-16T06:43:12.913Z,1.04
2017-01-16T06:44:24.316Z,1.03
2017-01-16T06:45:35.717Z,1.12
2017-01-16T06:46:47.116Z,1.02
2017-01-16T06:47:58.595Z,1
2017-01-16T06:49:09.999Z,0.97
2017-01-16T06:50:21.398Z,1.03
2017-01-16T06:51:32.803Z,1.03
2017-01-16T06:52:44.205Z,1.03
2017-01-16T06:53:55.861Z,0.99
2017-01-16T06:55:07.274Z,1.03
2017-01-16T06:56:18.674Z,1.1
2017-01-16T06:57:30.472Z,1
2017-01-16T06:58:41.872Z,1.02
2017-01-16T06:59:53.325Z,1.11
2017-01-16T07:01:04.729Z,1.03
2017-01-16T07:02:16.126Z,1.08
2017-01-16T07:03:27.522Z,1.1
2017-01-16T07:04:38.919Z,1.08
2017-01-16T07:05:50.372Z,1.07
2017-01-16T07:07:01.779Z,1.1
2017-01-16T07:08:13.171Z,1.02
2017-01-16T07:09:24.577Z,1.1
2017-01-16T07:10:35.986Z,1.08
2017-01-16T07:11:47.626Z,1.07
2017-01-16T07:12:59.232Z,1.11
2017-01-16T07:14:10.636Z,1.08
2017-01-16T07:15:22.057Z,1.07
2017-01-16T07:16:33.459Z,1.03
2017-01-16T07:17:44.918Z,1.08
2017-01-16T07:18:56.312Z,1.17
2017-01-16T07:20:07.918Z,1.08
2017-01-16T07:21:19.319Z,1.08
2017-01-16T07:22:31.123Z,1.03
2017-01-16T07:23:42.585Z,1.08
2017-01-16T07:24:53.985Z,1.04
2017-01-16T07:26:05.385Z,1.03
2017-01-16T07:27:16.980Z,1.11
2017-01-16T07:28:28.593Z,1.12
2017-01-16T07:29:40.041Z,1.02
2017-01-16T07:30:51.441Z,1.08
2017-01-16T07:32:02.836Z,1.08
2017-01-16T07:33:14.231Z,1.08
2017-01-16T07:34:25.637Z,1.11
2017-01-16T07:35:37.084Z,1.1
2017-01-16T07:36:48.492Z,1.03
2017-01-16T07:37:59.885Z,1.04
2017-01-16T07:39:11.291Z,1.11
2017-01-16T07:40:22.692Z,1.07
2017-01-16T07:41:34.352Z,1.08
2017-01-16T07:42:45.758Z,1.14
2017-01-16T07:43:57.161Z,1.14
2017-01-16T07:45:08.571Z,1.11
2017-01-16T07:46:19.975Z,1.07
2017-01-16T07:47:31.426Z,1.08
2017-01-16T07:48:43.028Z,1.04
2017-01-16T07:49:54.431Z,1.17
2017-01-16T07:51:05.833Z,1.11
2017-01-16T07:52:17.264Z,1.04
2017-01-16T07:53:28.854Z,1.1
2017-01-16T07:54:40.258Z,1.11
2017-01-16T07:55:51.675Z,1.12
2017-01-16T07:57:03.081Z,1.15
2017-01-16T07:58:14.479Z,1.14
2017-01-16T07:59:25.934Z,1.2
2017-01-16T08:00:37.328Z,1.2
2017-01-16T08:01:48.734Z,1.28
2017-01-16T08:03:00.336Z,1.18
2017-01-16T08:04:11.735Z,1.14
2017-01-16T08:05:23.184Z,1.24
2017-01-16T08:06:34.579Z,1.11
2017-01-16T08:07:45.976Z,1.22
2017-01-16T08:08:57.580Z,1.26
2017-01-16T08:10:09.183Z,1.22
2017-01-16T08:11:20.635Z,1.22
2017-01-16T08:12:32.033Z,1.24
2017-01-16T08:13:43.443Z,1.28
2017-01-16T08:14:54.842Z,1.35
2017-01-16T08:16:06.248Z,1.29
2017-01-16T08:17:17.702Z,1.32
2017-01-16T08:18:29.105Z,1.36
2017-01-16T08:19:40.506Z,1.29
2017-01-16T08:20:51.911Z,1.35
2017-01-16T08:22:03.320Z,1.3
2017-01-16T08:23:14.779Z,1.35
2017-01-16T08:24:26.177Z,1.32
2017-01-16T08:25:37.582Z,1.32
2017-01-16T08:26:48.979Z,1.36
2017-01-16T08:28:00.586Z,1.4
2017-01-16T08:29:12.095Z,1.42
2017-01-16T08:30:23.500Z,1.51
2017-01-16T08:31:34.916Z,1.48
2017-01-16T08:32:46.318Z,1.58
2017-01-16T08:33:57.717Z,1.58
2017-01-16T08:35:09.169Z,1.68
2017-01-16T08:36:20.563Z,1.65
2017-01-16T08:37:31.959Z,1.65
2017-01-16T08:38:43.554Z,1.78
2017-01-16T08:39:54.954Z,1.82
2017-01-16T08:41:06.434Z,1.75
2017-01-16T08:42:17.846Z,1.65
2017-01-16T08:43:29.247Z,1.74
2017-01-16T08:44:40.851Z,1.76
2017-01-16T08:45:52.272Z,1.74
2017-01-16T08:47:03.724Z,1.71
2017-01-16T08:48:15.115Z,1.69
2017-01-16T08:49:26.518Z,1.69
2017-01-16T08:50:37.923Z,1.74
2017-01-16T08:51:49.320Z,1.68
2017-01-16T08:53:00.782Z,1.71
2017-01-16T08:54:12.186Z,1.75
2017-01-16T08:55:23.782Z,1.68
2017-01-16T08:56:35.189Z,1.74
2017-01-16T08:57:46.620Z,1.76
2017-01-16T08:58:58.063Z,1.74
2017-01-16T09:00:09.455Z,1.83
2017-01-16T09:01:21.089Z,1.83
2017-01-16T09:02:32.486Z,1.71
2017-01-16T09:03:43.889Z,1.78
2017-01-16T09:04:55.543Z,1.89
2017-01-16T09:06:06.946Z,1.84
2017-01-16T09:07:18.549Z,1.78
2017-01-16T09:08:30.150Z,1.87
2017-01-16T09:09:41.553Z,1.92
2017-01-16T09:10:53.037Z,1.94
2017-01-16T09:12:04.639Z,2.05
2017-01-16T09:13:16.044Z,1.98
2017-01-16T09:14:27.439Z,2.09
2017-01-16T09:15:38.864Z,2.02
2017-01-16T09:16:50.312Z,2.09
2017-01-16T09:18:01.713Z,2.06
2017-01-16T09:19:13.118Z,2.16
2017-01-16T09:20:24.517Z,2.44
2017-01-16T09:21:35.924Z,2.73
2017-01-16T09:22:47.382Z,3.34
2017-01-16T09:23:58.801Z,3.75
2017-01-16T09:25:10.205Z,4.17
2017-01-16T09:26:21.634Z,4.42
2017-01-16T09:27:33.032Z,4.38
2017-01-16T09:28:44.486Z,4.46
2017-01-16T09:29:55.880Z,4.72
2017-01-16T09:31:07.295Z,4.98
2017-01-16T09:32:18.701Z,5
2017-01-16T09:33:30.105Z,4.98
2017-01-16T09:34:41.554Z,5
2017-01-16T09:35:52.954Z,4.98
2017-01-16T09:37:04.369Z,5.12
2017-01-16T09:38:15.810Z,5.13
2017-01-16T09:39:27.419Z,5.34
2017-01-16T09:40:38.877Z,5.18
2017-01-16T09:41:50.276Z,5.23
2017-01-16T09:43:01.709Z,5.54
2017-01-16T09:44:13.116Z,5.8
2017-01-16T09:45:24.530Z,6.21
2017-01-16T09:46:35.992Z,6.51
2017-01-16T09:47:47.407Z,6.9
2017-01-16T09:48:58.843Z,7.03
2017-01-16T09:50:10.250Z,6.95
2017-01-16T09:51:21.658Z,6.6
2017-01-16T09:52:33.108Z,6.24
2017-01-16T09:53:44.516Z,5.98
2017-01-16T09:54:55.940Z,6.17
2017-01-16T09:56:07.368Z,6.33
2017-01-16T09:57:18.779Z,6.42
2017-01-16T09:58:30.240Z,6.75
2017-01-16T09:59:42.050Z,7.13
2017-01-16T10:00:53.464Z,7.49
2017-01-16T10:02:04.862Z,7.68
2017-01-16T10:03:16.275Z,7.86
2017-01-16T10:04:27.728Z,8.24
2017-01-16T10:05:39.141Z,8.57
2017-01-16T10:06:50.552Z,8.4
2017-01-16T10:08:01.975Z,8.29
2017-01-16T10:09:13.588Z,7.88
2017-01-16T10:10:25.051Z,7.49
2017-01-16T10:11:36.470Z,7.04
2017-01-16T10:12:48.276Z,6.82
2017-01-16T10:13:59.716Z,6.68
2017-01-16T10:15:11.128Z,6.65
2017-01-16T10:16:22.590Z,6.73
2017-01-16T10:17:33.995Z,7.08
2017-01-16T10:18:45.404Z,7.23
2017-01-16T10:19:57.022Z,7.33
2017-01-16T10:21:08.438Z,7.39
2017-01-16T10:22:20.092Z,7.54
2017-01-16T10:23:31.696Z,7.78
2017-01-16T10:24:43.108Z,7.75
2017-01-16T10:25:54.518Z,7.78
2017-01-16T10:27:05.933Z,7.96
2017-01-16T10:28:17.395Z,8.25
2017-01-16T10:29:28.809Z,8.68
2017-01-16T10:30:40.219Z,9.19
2017-01-16T10:31:51.631Z,9.2
2017-01-16T10:33:03.038Z,9.44
2017-01-16T10:34:14.702Z,9.53
2017-01-16T10:35:26.305Z,9.64
2017-01-16T10:36:37.921Z,9.95
2017-01-16T10:37:49.336Z,10.26
2017-01-16T10:39:00.744Z,10.75
2017-01-16T10:40:12.204Z,11.02
2017-01-16T10:41:23.627Z,11.23
2017-01-16T10:42:35.055Z,11.6
2017-01-16T10:43:46.470Z,11.85
2017-01-16T10:44:57.896Z,12.31
2017-01-16T10:46:09.361Z,12.61
2017-01-16T10:47:20.774Z,12.59
2017-01-16T10:48:32.391Z,12.63
2017-01-16T10:49:44.020Z,12.76
2017-01-16T10:50:55.437Z,12.92
2017-01-16T10:52:06.932Z,13.06
2017-01-16T10:53:18.348Z,13.03
2017-01-16T10:54:29.783Z,13.27
2017-01-16T10:55:41.196Z,13.35
2017-01-16T10:56:52.673Z,13.47
2017-01-16T10:58:04.085Z,13.7
2017-01-16T10:59:15.506Z,13.76
2017-01-16T11:00:26.922Z,13.97
2017-01-16T11:01:38.366Z,14.09
2017-01-16T11:02:49.825Z,14.2
2017-01-16T11:04:01.248Z,13.76
2017-01-16T11:05:12.663Z,13.7
2017-01-16T11:06:24.083Z,13.45
2017-01-16T11:07:35.500Z,13.55
2017-01-16T11:08:46.965Z,13.76
2017-01-16T11:09:58.385Z,13.58
2017-01-16T11:11:09.814Z,13.73
2017-01-16T11:12:21.437Z,13.81
2017-01-16T11:13:32.859Z,13.75
2017-01-16T11:14:44.729Z,13.42
2017-01-16T11:15:56.144Z,13.06
2017-01-16T11:17:07.566Z,12.88
2017-01-16T11:18:18.979Z,13.02
2017-01-16T11:19:30.389Z,13.27
2017-01-16T11:20:41.878Z,13.29
2017-01-16T11:21:53.295Z,13.03
2017-01-16T11:23:04.713Z,12.63
2017-01-16T11:24:16.362Z,12.07
2017-01-16T11:25:27.770Z,11.53
2017-01-16T11:26:39.232Z,11
2017-01-16T11:27:50.854Z,10.39
2017-01-16T11:29:02.260Z,10.07
2017-01-16T11:30:13.678Z,9.78
2017-01-16T11:31:25.087Z,9.52
2017-01-16T11:32:36.552Z,9.34
2017-01-16T11:33:47.963Z,9.14
2017-01-16T11:34:59.383Z,9
2017-01-16T11:36:10.835Z,8.72
2017-01-16T11:37:22.456Z,8.58
2017-01-16T11:38:34.120Z,8.36
2017-01-16T11:39:45.535Z,8.21
2017-01-16T11:40:56.935Z,8.09
2017-01-16T11:42:08.350Z,7.92
2017-01-16T11:43:19.759Z,7.8
2017-01-16T11:44:31.214Z,7.77
2017-01-16T11:45:42.621Z,7.7
2017-01-16T11:46:54.030Z,7.52
2017-01-16T11:48:05.437Z,7.29
2017-01-16T11:49:16.859Z,7.13
2017-01-16T11:50:28.547Z,7.05
2017-01-16T11:51:39.976Z,6.86
2017-01-16T11:52:51.583Z,6.61
2017-01-16T11:54:02.985Z,6.57
2017-01-16T11:55:14.397Z,6.4
2017-01-16T11:56:25.853Z,6.39
2017-01-16T11:57:37.260Z,6.37
2017-01-16T11:58:48.666Z,6.24
2017-01-16T12:00:00.063Z,6.24
2017-01-16T12:01:11.463Z,6.13
2017-01-16T12:02:22.921Z,6.06
2017-01-16T12:03:34.322Z,6.37
2017-01-16T12:04:45.720Z,6.78
2017-01-16T12:05:57.128Z,7.13
2017-01-16T12:07:08.532Z,7.39
2017-01-16T12:08:19.990Z,7.71
2017-01-16T12:09:31.433Z,7.78
2017-01-16T12:10:42.839Z,8.04
2017-01-16T12:11:54.247Z,8.31
2017-01-16T12:13:05.659Z,8.46
2017-01-16T12:14:17.320Z,8.82
2017-01-16T12:15:28.722Z,9.23
2017-01-16T12:16:40.137Z,9.21
2017-01-16T12:17:51.543Z,8.61
2017-01-16T12:19:03.152Z,8.24
2017-01-16T12:20:14.817Z,7.91
2017-01-16T12:21:26.222Z,7.77
2017-01-16T12:22:37.626Z,7.77
2017-01-16T12:23:49.059Z,7.91
2017-01-16T12:25:00.468Z,7.89
2017-01-16T12:26:11.929Z,8.26
2017-01-16T12:27:23.331Z,8.43
2017-01-16T12:28:34.752Z,8.6
2017-01-16T12:29:46.165Z,8.77
2017-01-16T12:30:57.575Z,8.62
2017-01-16T12:32:09.036Z,8.46
2017-01-16T12:33:20.446Z,8.16
2017-01-16T12:34:31.863Z,7.88
2017-01-16T12:35:43.471Z,7.39
2017-01-16T12:36:54.879Z,7.22
2017-01-16T12:38:06.344Z,7.26
2017-01-16T12:39:17.958Z,7.47
2017-01-16T12:40:29.361Z,7.58
2017-01-16T12:41:40.769Z,7.63
2017-01-16T12:42:52.175Z,7.71
2017-01-16T12:44:03.635Z,7.93
2017-01-16T12:45:15.040Z,8.09
2017-01-16T12:46:26.446Z,8.19
2017-01-16T12:47:38.052Z,8.46
2017-01-16T12:48:49.661Z,8.57
2017-01-16T12:50:01.113Z,8.54
2017-01-16T12:51:12.518Z,8.65
2017-01-16T12:52:23.928Z,8.8
2017-01-16T12:53:35.335Z,8.97
2017-01-16T12:54:46.738Z,9.2
2017-01-16T12:55:58.185Z,9.2
2017-01-16T12:57:09.595Z,8.97
2017-01-16T12:58:21.205Z,8.71
2017-01-16T12:59:32.646Z,8.53
2017-01-16T13:00:44.053Z,8.4
2017-01-16T13:01:55.512Z,8.4
2017-01-16T13:03:06.915Z,8.53
2017-01-16T13:04:18.331Z,8.64
2017-01-16T13:05:29.773Z,8.79
2017-01-16T13:06:41.179Z,8.8
2017-01-16T13:07:52.631Z,8.82
2017-01-16T13:09:04.049Z,9.14
2017-01-16T13:10:15.456Z,9.32
2017-01-16T13:11:27.261Z,9.38
2017-01-16T13:12:38.669Z,9.44
2017-01-16T13:13:50.127Z,9.14
2017-01-16T13:15:01.528Z,8.71
2017-01-16T13:16:12.937Z,8.34
2017-01-16T13:17:24.344Z,7.93
2017-01-16T13:18:35.750Z,7.92
2017-01-16T13:19:47.207Z,7.86
2017-01-16T13:20:58.613Z,7.64
2017-01-16T13:22:10.028Z,7.27
2017-01-16T13:23:21.436Z,6.78
2017-01-16T13:24:32.847Z,6.33
2017-01-16T13:25:44.313Z,6.15
2017-01-16T13:26:55.723Z,5.98
2017-01-16T13:28:07.126Z,5.85
2017-01-16T13:29:18.531Z,5.8
2017-01-16T13:30:29.935Z,5.55
2017-01-16T13:31:41.387Z,5.36
2017-01-16T13:32:52.806Z,5
2017-01-16T13:34:04.219Z,4.85
2017-01-16T13:35:15.626Z,4.76
2017-01-16T13:36:27.037Z,4.66
2017-01-16T13:37:38.481Z,4.87
2017-01-16T13:38:49.877Z,5.05
2017-01-16T13:40:01.275Z,5.3
2017-01-16T13:41:12.679Z,5.42
2017-01-16T13:42:24.082Z,5.52
2017-01-16T13:43:35.536Z,5.36
2017-01-16T13:44:47.336Z,5.15
2017-01-16T13:45:58.740Z,5.12
2017-01-16T13:47:10.144Z,5.02
2017-01-16T13:48:21.555Z,5.06
2017-01-16T13:49:33.207Z,4.95
2017-01-16T13:50:44.615Z,4.94
2017-01-16T13:51:56.215Z,4.88
2017-01-16T13:53:07.617Z,4.87
2017-01-16T13:54:19.024Z,4.92
2017-01-16T13:55:30.471Z,5.03
2017-01-16T13:56:42.077Z,4.88
2017-01-16T13:57:53.475Z,5.08
2017-01-16T13:59:04.876Z,5.18
2017-01-16T14:00:16.281Z,5.27
2017-01-16T14:01:27.744Z,5.37
2017-01-16T14:02:39.150Z,5.27
2017-01-16T14:03:50.550Z,5.26
2017-01-16T14:05:01.954Z,5.15
2017-01-16T14:06:13.360Z,5.06
2017-01-16T14:07:24.832Z,4.91
2017-01-16T14:08:36.238Z,4.87
2017-01-16T14:09:47.646Z,4.57
2017-01-16T14:10:59.053Z,4.48
2017-01-16T14:12:10.451Z,4.51
2017-01-16T14:13:21.907Z,4.44
2017-01-16T14:14:33.311Z,4.38
2017-01-16T14:15:44.725Z,4.21
2017-01-16T14:16:56.129Z,4.18
2017-01-16T14:18:07.541Z,4.17
2017-01-16T14:19:18.999Z,4.2
2017-01-16T14:20:30.396Z,4.14
2017-01-16T14:21:42.001Z,4.18
2017-01-16T14:22:53.401Z,4.03
2017-01-16T14:24:04.818Z,3.94
2017-01-16T14:25:16.481Z,3.9
2017-01-16T14:26:27.875Z,3.82
2017-01-16T14:27:39.286Z,3.71
2017-01-16T14:28:50.682Z,3.74
2017-01-16T14:30:02.090Z,3.72
2017-01-16T14:31:13.547Z,3.71
2017-01-16T14:32:24.956Z,3.75
2017-01-16T14:33:36.564Z,3.71
2017-01-16T14:34:48.172Z,3.69
2017-01-16T14:35:59.577Z,3.78
2017-01-16T14:37:11.029Z,3.76
2017-01-16T14:38:22.624Z,3.74
2017-01-16T14:39:34.030Z,3.71
2017-01-16T14:40:45.636Z,3.74
2017-01-16T14:41:57.241Z,3.67
2017-01-16T14:43:08.696Z,3.61
2017-01-16T14:44:20.105Z,3.58
2017-01-16T14:45:31.712Z,3.57
2017-01-16T14:46:43.125Z,3.53
2017-01-16T14:47:54.533Z,3.53
2017-01-16T14:49:05.976Z,3.37
2017-01-16T14:50:17.379Z,3.24
2017-01-16T14:51:28.786Z,3.35
2017-01-16T14:52:40.184Z,3.35
2017-01-16T14:53:51.598Z,3.17
2017-01-16T14:55:03.049Z,3.2
2017-01-16T14:56:14.450Z,2.98
2017-01-16T14:57:25.851Z,3.02
2017-01-16T14:58:37.246Z,2.99
2017-01-16T14:59:48.646Z,3.02
2017-01-16T15:01:00.291Z,2.93
2017-01-16T15:02:11.698Z,2.7
2017-01-16T15:03:23.097Z,2.6
2017-01-16T15:04:34.493Z,2.48
2017-01-16T15:05:45.905Z,2.45
2017-01-16T15:06:57.364Z,2.3
2017-01-16T15:08:08.777Z,2.31
2017-01-16T15:09:20.179Z,2.33
2017-01-16T15:10:31.575Z,2.24
2017-01-16T15:11:42.985Z,2.11
2017-01-16T15:12:54.435Z,2.09
2017-01-16T15:14:06.042Z,1.97
2017-01-16T15:15:17.449Z,1.89
2017-01-16T15:16:28.850Z,1.82
2017-01-16T15:17:40.260Z,1.82
2017-01-16T15:18:51.708Z,1.87
2017-01-16T15:20:03.106Z,1.9
2017-01-16T15:21:14.509Z,1.83
2017-01-16T15:22:25.908Z,1.78
2017-01-16T15:23:37.308Z,1.72
2017-01-16T15:24:48.959Z,1.64
2017-01-16T15:26:00.567Z,1.61
2017-01-16T15:27:11.973Z,1.54
2017-01-16T15:28:23.377Z,1.51
2017-01-16T15:29:34.772Z,1.44
2017-01-16T15:30:46.235Z,1.22
2017-01-16T15:31:57.634Z,1.2
2017-01-16T15:33:09.044Z,1.15
2017-01-16T15:34:20.639Z,1.18
2017-01-16T15:35:32.246Z,1.22
2017-01-16T15:36:43.701Z,1.15
2017-01-16T15:37:55.105Z,1.1
2017-01-16T15:39:06.711Z,1.15
2017-01-16T15:40:18.116Z,1.17
2017-01-16T15:41:29.509Z,1.17
2017-01-16T15:42:40.953Z,1.21
2017-01-16T15:43:52.553Z,1.2
2017-01-16T15:45:03.977Z,1.14
2017-01-16T15:46:15.378Z,0.99
2017-01-16T15:47:26.785Z,1
2017-01-16T15:48:38.236Z,0.67
2017-01-16T15:49:49.837Z,0.64